Dan L — WDG4449 — position and weather

sailwx.info

Track history (hours):
 
Tides and Currents Weather Stations Pressure Air Temp Water Temp Dewpoint Dewpoint Depression Visibility Wind Speed Wind Dir Waves Ship Positions

Dan L

Owner: Enterprise Marine Services, LLC, San Antonio, TX. More information available from US FCC via Universal Licensing System and Coast Guard Vessel Documentation Center.

Last reported at 2018-Jun-05 08:09 UTC. Time now 2018-Jun-25 11:30 UTC.
Position N 32°52' W 091°06'.
Warning: this ship's position is 20 days out of date.

Length 215 m; draft 3 m.

Type: Tug. MMSI: 367536660.

Date/timePositionNaut miles runAvg speedWind from/ knotsBaromVisibWave heightAir tempDewpointWater temp
2018-Jun-05 08:09N 32°52' W 091°06'1 4.4
2018-Jun-05 08:00N 32°52' W 091°07'5 4.2
2018-Jun-05 06:53N 32°47' W 091°10'0 0.0
2018-Jun-05 05:46N 32°47' W 091°10'2 1.0
2018-Jun-05 03:59N 32°46' W 091°09'4 3.2
2018-Jun-05 02:49N 32°44' W 091°05'1 4.0
2018-Jun-05 02:30N 32°44' W 091°04'3 4.4
2018-Jun-05 01:54N 32°41' W 091°04'2 5.8
2018-Jun-05 01:30N 32°40' W 091°07'2 3.6
2018-Jun-05 01:00N 32°39' W 091°09'2 4.5
2018-Jun-05 00:30N 32°37' W 091°09'2 4.0
2018-Jun-05 00:00N 32°35' W 091°08'2 4.0
2018-Jun-04 23:30N 32°34' W 091°06'2 3.8
2018-Jun-04 22:55N 32°32' W 091°06'2 4.6
2018-Jun-04 22:30N 32°30' W 091°07'2 4.3
2018-Jun-04 22:00N 32°28' W 091°06'2 4.4
2018-Jun-04 21:30N 32°27' W 091°04'2 3.7
2018-Jun-04 21:00N 32°26' W 091°02'2 4.3
2018-Jun-04 20:30N 32°25' W 090°60'2 4.0
2018-Jun-04 20:00N 32°23' W 090°60'1 1.7
2018-Jun-04 19:30N 32°22' W 091°00'1 2.6
2018-Jun-04 19:00N 32°21' W 090°59'2 4.6
2018-Jun-04 18:30N 32°21' W 090°57'2 4.2
2018-Jun-04 18:00N 32°20' W 090°54'2 3.6
2018-Jun-04 17:30N 32°18' W 090°55'2 4.1
2018-Jun-04 17:00N 32°17' W 090°57'2 4.1
2018-Jun-04 16:30N 32°15' W 090°58'2 4.4
2018-Jun-04 16:00N 32°13' W 090°59'2 4.4
2018-Jun-04 15:28N 32°11' W 090°60'2 3.9
2018-Jun-04 15:00N 32°09' W 091°00'2 4.1
2018-Jun-04 14:30N 32°07' W 091°01'2 3.8
2018-Jun-04 14:00N 32°08' W 091°03'2 4.5
2018-Jun-04 13:30N 32°08' W 091°06'2 3.6
2018-Jun-04 13:00N 32°06' W 091°06'3 5.1
2018-Jun-04 12:30N 32°04' W 091°04'2 4.5
2018-Jun-04 12:00N 32°02' W 091°04'3 5.2
2018-Jun-04 11:30N 31°60' W 091°06'4 4.7
2018-Jun-04 10:33N 31°59' W 091°11'0 4.6
2018-Jun-04 10:30N 31°58' W 091°11'  
2018-Jun-01 20:55N 29°51' W 091°55'3 7.2
2018-Jun-01 20:30N 29°50' W 091°58'3 6.4
2018-Jun-01 20:00N 29°49' W 092°02'3 6.4
2018-Jun-01 19:30N 29°48' W 092°05'3 6.6
2018-Jun-01 19:00N 29°47' W 092°09'3 6.0
2018-Jun-01 18:30N 29°47' W 092°12'0 0.5
2018-Jun-01 18:00N 29°47' W 092°13'1 1.0
2018-Jun-01 17:30N 29°47' W 092°13'0 0.7
2018-Jun-01 17:00N 29°48' W 092°14'1 2.4
2018-Jun-01 16:30N 29°48' W 092°15'0 0.0
2018-Jun-01 16:00N 29°48' W 092°15'2 3.5
2018-Jun-01 15:30N 29°49' W 092°17'3 5.6
2018-Jun-01 15:00N 29°50' W 092°19'40 5.5
2018-Jun-01 07:48N 29°56' W 093°05'2 5.9
2018-Jun-01 07:29N 29°56' W 093°07'3 5.8
2018-Jun-01 07:00N 29°57' W 093°10'3 6.8
2018-Jun-01 06:30N 29°59' W 093°13'3 5.7
2018-Jun-01 06:01N 30°02' W 093°14'3 5.5
2018-Jun-01 05:30N 30°04' W 093°16'2 4.1
2018-Jun-01 05:00N 30°05' W 093°18'1 1.0
2018-Jun-01 04:30N 30°06' W 093°18'0 0.0
2018-Jun-01 04:00N 30°06' W 093°18'0 0.0
2018-Jun-01 03:30N 30°06' W 093°18'0 0.0
2018-Jun-01 03:00N 30°06' W 093°18'0 0.0
2018-Jun-01 02:30N 30°06' W 093°18'0 0.0
2018-Jun-01 02:01N 30°06' W 093°18'0 0.0
2018-Jun-01 01:30N 30°06' W 093°18'0 0.0
2018-Jun-01 01:00N 30°06' W 093°18'0 0.0
2018-Jun-01 00:30N 30°06' W 093°18'0 0.0
2018-Jun-01 00:00N 30°06' W 093°18'0 0.0
2018-May-31 23:30N 30°06' W 093°18'0 0.0
2018-May-31 22:54N 30°06' W 093°18'0 0.0
2018-May-31 22:30N 30°06' W 093°18'0 0.0
2018-May-31 22:00N 30°06' W 093°18'0 0.0
2018-May-31 21:30N 30°06' W 093°18'0 0.0
2018-May-31 20:57N 30°06' W 093°18'0 0.0
2018-May-31 20:30N 30°06' W 093°18'0 0.0
2018-May-31 20:00N 30°06' W 093°18'0 0.0
2018-May-31 19:30N 30°06' W 093°18'0 0.0
2018-May-31 19:00N 30°06' W 093°18'0 0.0
2018-May-31 18:30N 30°06' W 093°18'0 0.1
2018-May-31 18:00N 30°06' W 093°18'2 3.6
2018-May-31 17:30N 30°05' W 093°20'2 4.7
2018-May-31 17:01N 30°04' W 093°22'3 5.6
2018-May-31 16:30N 30°04' W 093°26'3 5.7
2018-May-31 16:00N 30°04' W 093°29'3 5.7
2018-May-31 15:30N 30°04' W 093°32'3 5.7
2018-May-31 15:00N 30°04' W 093°35'3 5.9
2018-May-31 14:30N 30°03' W 093°39'3 6.0
2018-May-31 14:00N 30°03' W 093°42'3 5.4
2018-May-31 13:30N 30°01' W 093°44'3 6.1
2018-May-31 13:00N 29°60' W 093°47'3 6.6
2018-May-31 12:30N 29°58' W 093°51'4 8.5
2018-May-31 12:00N 29°55' W 093°53'3 6.4
2018-May-31 11:30N 29°52' W 093°56'3 6.3
2018-May-31 11:00N 29°50' W 093°57'2 4.3
2018-May-31 10:30N 29°49' W 093°60'3 5.8
2018-May-31 10:00N 29°47' W 094°02'3 5.8
2018-May-31 09:30N 29°45' W 094°05'3 5.9
2018-May-31 09:00N 29°43' W 094°07'3 5.9
2018-May-31 08:30N 29°41' W 094°10'3 6.6
2018-May-31 07:59N 29°40' W 094°14'3 6.1
2018-May-31 07:30N 29°39' W 094°17'3 6.0
2018-May-31 07:00N 29°37' W 094°20'3 6.1
2018-May-31 06:30N 29°36' W 094°23'3 5.0
2018-May-31 05:58N 29°34' W 094°25'11 5.2
2018-May-31 03:54N 29°29' W 094°36'2 6.0
2018-May-31 03:30N 29°28' W 094°39'3 6.1
2018-May-31 02:58N 29°26' W 094°42'3 5.9
2018-May-31 02:29N 29°25' W 094°44'3 6.1
2018-May-31 02:00N 29°23' W 094°47'5 9.2
2018-May-31 01:26N 29°27' W 094°51'711.6
2018-May-31 00:50N 29°33' W 094°54'411.1
2018-May-31 00:31N 29°36' W 094°57'611.4
2018-May-31 00:01N 29°41' W 094°59'8 1.8
2018-May-30 19:34N 29°44' W 095°08'3 8.4
2018-May-30 19:15N 29°45' W 095°11'2 0.1
2018-May-30 06:50N 29°44' W 095°12'0 0.1
2018-May-30 06:26N 29°44' W 095°12'0 0.0
2018-May-30 05:58N 29°44' W 095°12'0 0.0
2018-May-30 05:30N 29°44' W 095°12'0 0.0
2018-May-30 04:54N 29°44' W 095°12'0 0.0
2018-May-30 04:30N 29°44' W 095°12'0 0.0
2018-May-30 03:59N 29°44' W 095°12'0 0.0
2018-May-30 03:26N 29°44' W 095°12'0 0.0
2018-May-30 02:58N 29°44' W 095°12'1 0.5
2018-May-30 00:18N 29°45' W 095°11'3 8.6
2018-May-29 23:59N 29°44' W 095°08'4 0.4
2018-May-29 14:12N 29°47' W 095°05'0 0.0
2018-May-29 13:52N 29°47' W 095°05'0 0.0
2018-May-29 13:29N 29°47' W 095°05'0 0.0
2018-May-29 13:00N 29°47' W 095°05'0 0.0
2018-May-29 12:30N 29°47' W 095°05'0 0.0
2018-May-29 11:49N 29°47' W 095°05'0 0.1
2018-May-29 11:29N 29°47' W 095°05'0 0.0
2018-May-29 10:56N 29°47' W 095°05'0 0.0
2018-May-29 10:25N 29°47' W 095°05'0 0.0
2018-May-29 09:59N 29°47' W 095°05'0 0.0
2018-May-29 09:30N 29°47' W 095°05'0 0.0
2018-May-29 08:55N 29°47' W 095°05'0 0.0
2018-May-29 08:30N 29°47' W 095°05'0 0.0
2018-May-29 07:38N 29°47' W 095°05'0 0.0
2018-May-29 07:26N 29°47' W 095°05'0 0.0
2018-May-29 06:55N 29°47' W 095°05'1 0.2
2018-May-29 01:21N 29°46' W 095°05'3 8.6
2018-May-29 01:00N 29°44' W 095°02'4 8.6
2018-May-29 00:31N 29°41' W 094°59'5 9.5
2018-May-29 00:00N 29°36' W 094°57'5 9.6
2018-May-28 23:30N 29°32' W 094°54'610.0
2018-May-28 22:56N 29°27' W 094°51'4 9.8
2018-May-28 22:30N 29°23' W 094°49'2 4.8
2018-May-28 22:00N 29°23' W 094°46'2 4.5
2018-May-28 21:30N 29°25' W 094°44'19 4.8
2018-May-28 17:36N 29°34' W 094°25'1 4.9
2018-May-28 17:25N 29°35' W 094°25'2 3.5
2018-May-28 16:59N 29°36' W 094°23'2 4.5
2018-May-28 16:30N 29°37' W 094°21'2 4.7
2018-May-28 16:00N 29°38' W 094°19'2 4.8
2018-May-28 15:30N 29°39' W 094°16'2 4.7
2018-May-28 15:00N 29°40' W 094°14'2 4.7
2018-May-28 14:31N 29°41' W 094°12'2 4.6
2018-May-28 14:00N 29°42' W 094°09'2 4.6
2018-May-28 13:30N 29°43' W 094°07'2 4.7
2018-May-28 13:00N 29°45' W 094°05'2 4.7
2018-May-28 12:30N 29°46' W 094°03'2 4.7
2018-May-28 12:00N 29°48' W 094°01'2 4.6
2018-May-28 11:30N 29°49' W 093°59'3 5.3
2018-May-28 11:00N 29°51' W 093°57'3 5.2
2018-May-28 10:30N 29°53' W 093°55'3 6.8
2018-May-28 10:00N 29°56' W 093°52'3 6.2
2018-May-28 09:30N 29°58' W 093°50'4 7.3
2018-May-28 09:00N 29°60' W 093°46'4 7.1
2018-May-28 08:30N 30°03' W 093°44'3 5.9
2018-May-28 08:00N 30°04' W 093°41'3 6.0
2018-May-28 07:30N 30°04' W 093°37'3 5.4
2018-May-28 07:00N 30°04' W 093°34'2 5.0
2018-May-28 06:30N 30°04' W 093°31'2 3.9
2018-May-28 06:00N 30°04' W 093°29'3 5.1
2018-May-28 05:30N 30°04' W 093°26'3 5.1
2018-May-28 05:00N 30°04' W 093°23'2 4.0
2018-May-28 04:30N 30°04' W 093°21'2 5.0
2018-May-28 04:00N 30°06' W 093°19'1 2.9
2018-May-28 03:30N 30°05' W 093°18'1 1.8
2018-May-28 03:00N 30°05' W 093°17'1 1.4
2018-May-28 02:30N 30°04' W 093°16'1 1.0
2018-May-28 02:00N 30°04' W 093°16'1 1.9
2018-May-28 01:30N 30°03' W 093°16'1 2.1
2018-May-28 01:01N 30°02' W 093°15'0 0.9
2018-May-28 00:30N 30°02' W 093°15'0 0.4
2018-May-28 00:00N 30°02' W 093°14'0 0.0
2018-May-27 23:31N 30°02' W 093°14'0 0.0
2018-May-27 23:00N 30°02' W 093°14'0 0.0
2018-May-27 22:30N 30°02' W 093°14'0 0.0
2018-May-27 22:00N 30°02' W 093°14'2 3.6
2018-May-27 21:30N 29°60' W 093°13'1 2.8
2018-May-27 21:00N 29°59' W 093°12'2 3.1
2018-May-27 20:30N 29°58' W 093°11'2 4.6
2018-May-27 20:01N 29°56' W 093°09'3 5.1
2018-May-27 19:29N 29°56' W 093°06'0 0.9
2018-May-27 19:00N 29°56' W 093°06'31 4.6
2018-May-27 12:10N 29°54' W 092°30'1 5.0
2018-May-27 12:00N 29°54' W 092°29'2 4.9
2018-May-27 11:30N 29°53' W 092°26'3 4.7
2018-May-27 10:58N 29°53' W 092°23'2 3.9
2018-May-27 10:23N 29°51' W 092°22'2 4.7
2018-May-27 10:00N 29°51' W 092°20'2 4.2
2018-May-27 09:29N 29°50' W 092°18'1 2.5
2018-May-27 09:00N 29°49' W 092°17'2 3.4
2018-May-27 08:30N 29°48' W 092°15'2 4.1
2018-May-27 08:00N 29°47' W 092°13'1 1.4
2018-May-27 07:30N 29°47' W 092°12'1 1.1
2018-May-27 06:59N 29°47' W 092°11'0 0.0
2018-May-27 06:30N 29°47' W 092°11'0 0.6
2018-May-27 06:00N 29°47' W 092°11'0 0.0
2018-May-27 05:30N 29°47' W 092°11'0 0.6
2018-May-27 05:00N 29°47' W 092°11'2 4.6
2018-May-27 04:31N 29°47' W 092°08'3 5.0
2018-May-27 04:00N 29°48' W 092°05'2 4.9
2018-May-27 03:30N 29°49' W 092°03'2 4.8
2018-May-27 02:59N 29°50' W 092°00'2 4.8
2018-May-27 02:30N 29°50' W 091°58'2 4.7
2018-May-27 02:00N 29°51' W 091°55'  
Track history (hours):
 
Tides and Currents Weather Stations Pressure Air Temp Water Temp Dewpoint Dewpoint Depression Visibility Wind Speed Wind Dir Waves Ship Positions

Dan L

Owner: Enterprise Marine Services, LLC, San Antonio, TX. More information available from US FCC via Universal Licensing System and Coast Guard Vessel Documentation Center.

Last reported at 2018-Jun-05 08:09 UTC. Time now 2018-Jun-25 11:30 UTC.
Position N 32°52' W 091°06'.
Warning: this ship's position is 20 days out of date.

Length 215 m; draft 3 m.

Type: Tug. MMSI: 367536660.

Date/timePositionNaut miles runAvg speedWind from/ knotsBaromVisibWave heightAir tempDewpointWater temp
2018-Jun-05 08:09N 32°52' W 091°06'1 4.4
2018-Jun-05 08:00N 32°52' W 091°07'5 4.2
2018-Jun-05 06:53N 32°47' W 091°10'0 0.0
2018-Jun-05 05:46N 32°47' W 091°10'2 1.0
2018-Jun-05 03:59N 32°46' W 091°09'4 3.2
2018-Jun-05 02:49N 32°44' W 091°05'1 4.0
2018-Jun-05 02:30N 32°44' W 091°04'3 4.4
2018-Jun-05 01:54N 32°41' W 091°04'2 5.8
2018-Jun-05 01:30N 32°40' W 091°07'2 3.6
2018-Jun-05 01:00N 32°39' W 091°09'2 4.5
2018-Jun-05 00:30N 32°37' W 091°09'2 4.0
2018-Jun-05 00:00N 32°35' W 091°08'2 4.0
2018-Jun-04 23:30N 32°34' W 091°06'2 3.8
2018-Jun-04 22:55N 32°32' W 091°06'2 4.6
2018-Jun-04 22:30N 32°30' W 091°07'2 4.3
2018-Jun-04 22:00N 32°28' W 091°06'2 4.4
2018-Jun-04 21:30N 32°27' W 091°04'2 3.7
2018-Jun-04 21:00N 32°26' W 091°02'2 4.3
2018-Jun-04 20:30N 32°25' W 090°60'2 4.0
2018-Jun-04 20:00N 32°23' W 090°60'1 1.7
2018-Jun-04 19:30N 32°22' W 091°00'1 2.6
2018-Jun-04 19:00N 32°21' W 090°59'2 4.6
2018-Jun-04 18:30N 32°21' W 090°57'2 4.2
2018-Jun-04 18:00N 32°20' W 090°54'2 3.6
2018-Jun-04 17:30N 32°18' W 090°55'2 4.1
2018-Jun-04 17:00N 32°17' W 090°57'2 4.1
2018-Jun-04 16:30N 32°15' W 090°58'2 4.4
2018-Jun-04 16:00N 32°13' W 090°59'2 4.4
2018-Jun-04 15:28N 32°11' W 090°60'2 3.9
2018-Jun-04 15:00N 32°09' W 091°00'2 4.1
2018-Jun-04 14:30N 32°07' W 091°01'2 3.8
2018-Jun-04 14:00N 32°08' W 091°03'2 4.5
2018-Jun-04 13:30N 32°08' W 091°06'2 3.6
2018-Jun-04 13:00N 32°06' W 091°06'3 5.1
2018-Jun-04 12:30N 32°04' W 091°04'2 4.5
2018-Jun-04 12:00N 32°02' W 091°04'3 5.2
2018-Jun-04 11:30N 31°60' W 091°06'4 4.7
2018-Jun-04 10:33N 31°59' W 091°11'0 4.6
2018-Jun-04 10:30N 31°58' W 091°11'  
2018-Jun-01 20:55N 29°51' W 091°55'3 7.2
2018-Jun-01 20:30N 29°50' W 091°58'3 6.4
2018-Jun-01 20:00N 29°49' W 092°02'3 6.4
2018-Jun-01 19:30N 29°48' W 092°05'3 6.6
2018-Jun-01 19:00N 29°47' W 092°09'3 6.0
2018-Jun-01 18:30N 29°47' W 092°12'0 0.5
2018-Jun-01 18:00N 29°47' W 092°13'1 1.0
2018-Jun-01 17:30N 29°47' W 092°13'0 0.7
2018-Jun-01 17:00N 29°48' W 092°14'1 2.4
2018-Jun-01 16:30N 29°48' W 092°15'0 0.0
2018-Jun-01 16:00N 29°48' W 092°15'2 3.5
2018-Jun-01 15:30N 29°49' W 092°17'3 5.6
2018-Jun-01 15:00N 29°50' W 092°19'40 5.5
2018-Jun-01 07:48N 29°56' W 093°05'2 5.9
2018-Jun-01 07:29N 29°56' W 093°07'3 5.8
2018-Jun-01 07:00N 29°57' W 093°10'3 6.8
2018-Jun-01 06:30N 29°59' W 093°13'3 5.7
2018-Jun-01 06:01N 30°02' W 093°14'3 5.5
2018-Jun-01 05:30N 30°04' W 093°16'2 4.1
2018-Jun-01 05:00N 30°05' W 093°18'1 1.0
2018-Jun-01 04:30N 30°06' W 093°18'0 0.0
2018-Jun-01 04:00N 30°06' W 093°18'0 0.0
2018-Jun-01 03:30N 30°06' W 093°18'0 0.0
2018-Jun-01 03:00N 30°06' W 093°18'0 0.0
2018-Jun-01 02:30N 30°06' W 093°18'0 0.0
2018-Jun-01 02:01N 30°06' W 093°18'0 0.0
2018-Jun-01 01:30N 30°06' W 093°18'0 0.0
2018-Jun-01 01:00N 30°06' W 093°18'0 0.0
2018-Jun-01 00:30N 30°06' W 093°18'0 0.0
2018-Jun-01 00:00N 30°06' W 093°18'0 0.0
2018-May-31 23:30N 30°06' W 093°18'0 0.0
2018-May-31 22:54N 30°06' W 093°18'0 0.0
2018-May-31 22:30N 30°06' W 093°18'0 0.0
2018-May-31 22:00N 30°06' W 093°18'0 0.0
2018-May-31 21:30N 30°06' W 093°18'0 0.0
2018-May-31 20:57N 30°06' W 093°18'0 0.0
2018-May-31 20:30N 30°06' W 093°18'0 0.0
2018-May-31 20:00N 30°06' W 093°18'0 0.0
2018-May-31 19:30N 30°06' W 093°18'0 0.0
2018-May-31 19:00N 30°06' W 093°18'0 0.0
2018-May-31 18:30N 30°06' W 093°18'0 0.1
2018-May-31 18:00N 30°06' W 093°18'2 3.6
2018-May-31 17:30N 30°05' W 093°20'2 4.7
2018-May-31 17:01N 30°04' W 093°22'3 5.6
2018-May-31 16:30N 30°04' W 093°26'3 5.7
2018-May-31 16:00N 30°04' W 093°29'3 5.7
2018-May-31 15:30N 30°04' W 093°32'3 5.7
2018-May-31 15:00N 30°04' W 093°35'3 5.9
2018-May-31 14:30N 30°03' W 093°39'3 6.0
2018-May-31 14:00N 30°03' W 093°42'3 5.4
2018-May-31 13:30N 30°01' W 093°44'3 6.1
2018-May-31 13:00N 29°60' W 093°47'3 6.6
2018-May-31 12:30N 29°58' W 093°51'4 8.5
2018-May-31 12:00N 29°55' W 093°53'3 6.4
2018-May-31 11:30N 29°52' W 093°56'3 6.3
2018-May-31 11:00N 29°50' W 093°57'2 4.3
2018-May-31 10:30N 29°49' W 093°60'3 5.8
2018-May-31 10:00N 29°47' W 094°02'3 5.8
2018-May-31 09:30N 29°45' W 094°05'3 5.9
2018-May-31 09:00N 29°43' W 094°07'3 5.9
2018-May-31 08:30N 29°41' W 094°10'3 6.6
2018-May-31 07:59N 29°40' W 094°14'3 6.1
2018-May-31 07:30N 29°39' W 094°17'3 6.0
2018-May-31 07:00N 29°37' W 094°20'3 6.1
2018-May-31 06:30N 29°36' W 094°23'3 5.0
2018-May-31 05:58N 29°34' W 094°25'11 5.2
2018-May-31 03:54N 29°29' W 094°36'2 6.0
2018-May-31 03:30N 29°28' W 094°39'3 6.1
2018-May-31 02:58N 29°26' W 094°42'3 5.9
2018-May-31 02:29N 29°25' W 094°44'3 6.1
2018-May-31 02:00N 29°23' W 094°47'5 9.2
2018-May-31 01:26N 29°27' W 094°51'711.6
2018-May-31 00:50N 29°33' W 094°54'411.1
2018-May-31 00:31N 29°36' W 094°57'611.4
2018-May-31 00:01N 29°41' W 094°59'8 1.8
2018-May-30 19:34N 29°44' W 095°08'3 8.4
2018-May-30 19:15N 29°45' W 095°11'2 0.1
2018-May-30 06:50N 29°44' W 095°12'0 0.1
2018-May-30 06:26N 29°44' W 095°12'0 0.0
2018-May-30 05:58N 29°44' W 095°12'0 0.0
2018-May-30 05:30N 29°44' W 095°12'0 0.0
2018-May-30 04:54N 29°44' W 095°12'0 0.0
2018-May-30 04:30N 29°44' W 095°12'0 0.0
2018-May-30 03:59N 29°44' W 095°12'0 0.0
2018-May-30 03:26N 29°44' W 095°12'0 0.0
2018-May-30 02:58N 29°44' W 095°12'1 0.5
2018-May-30 00:18N 29°45' W 095°11'3 8.6
2018-May-29 23:59N 29°44' W 095°08'4 0.4
2018-May-29 14:12N 29°47' W 095°05'0 0.0
2018-May-29 13:52N 29°47' W 095°05'0 0.0
2018-May-29 13:29N 29°47' W 095°05'0 0.0
2018-May-29 13:00N 29°47' W 095°05'0 0.0
2018-May-29 12:30N 29°47' W 095°05'0 0.0
2018-May-29 11:49N 29°47' W 095°05'0 0.1
2018-May-29 11:29N 29°47' W 095°05'0 0.0
2018-May-29 10:56N 29°47' W 095°05'0 0.0
2018-May-29 10:25N 29°47' W 095°05'0 0.0
2018-May-29 09:59N 29°47' W 095°05'0 0.0
2018-May-29 09:30N 29°47' W 095°05'0 0.0
2018-May-29 08:55N 29°47' W 095°05'0 0.0
2018-May-29 08:30N 29°47' W 095°05'0 0.0
2018-May-29 07:38N 29°47' W 095°05'0 0.0
2018-May-29 07:26N 29°47' W 095°05'0 0.0
2018-May-29 06:55N 29°47' W 095°05'1 0.2
2018-May-29 01:21N 29°46' W 095°05'3 8.6
2018-May-29 01:00N 29°44' W 095°02'4 8.6
2018-May-29 00:31N 29°41' W 094°59'5 9.5
2018-May-29 00:00N 29°36' W 094°57'5 9.6
2018-May-28 23:30N 29°32' W 094°54'610.0
2018-May-28 22:56N 29°27' W 094°51'4 9.8
2018-May-28 22:30N 29°23' W 094°49'2 4.8
2018-May-28 22:00N 29°23' W 094°46'2 4.5
2018-May-28 21:30N 29°25' W 094°44'19 4.8
2018-May-28 17:36N 29°34' W 094°25'1 4.9
2018-May-28 17:25N 29°35' W 094°25'2 3.5
2018-May-28 16:59N 29°36' W 094°23'2 4.5
2018-May-28 16:30N 29°37' W 094°21'2 4.7
2018-May-28 16:00N 29°38' W 094°19'2 4.8
2018-May-28 15:30N 29°39' W 094°16'2 4.7
2018-May-28 15:00N 29°40' W 094°14'2 4.7
2018-May-28 14:31N 29°41' W 094°12'2 4.6
2018-May-28 14:00N 29°42' W 094°09'2 4.6
2018-May-28 13:30N 29°43' W 094°07'2 4.7
2018-May-28 13:00N 29°45' W 094°05'2 4.7
2018-May-28 12:30N 29°46' W 094°03'2 4.7
2018-May-28 12:00N 29°48' W 094°01'2 4.6
2018-May-28 11:30N 29°49' W 093°59'3 5.3
2018-May-28 11:00N 29°51' W 093°57'3 5.2
2018-May-28 10:30N 29°53' W 093°55'3 6.8
2018-May-28 10:00N 29°56' W 093°52'3 6.2
2018-May-28 09:30N 29°58' W 093°50'4 7.3
2018-May-28 09:00N 29°60' W 093°46'4 7.1
2018-May-28 08:30N 30°03' W 093°44'3 5.9
2018-May-28 08:00N 30°04' W 093°41'3 6.0
2018-May-28 07:30N 30°04' W 093°37'3 5.4
2018-May-28 07:00N 30°04' W 093°34'2 5.0
2018-May-28 06:30N 30°04' W 093°31'2 3.9
2018-May-28 06:00N 30°04' W 093°29'3 5.1
2018-May-28 05:30N 30°04' W 093°26'3 5.1
2018-May-28 05:00N 30°04' W 093°23'2 4.0
2018-May-28 04:30N 30°04' W 093°21'2 5.0
2018-May-28 04:00N 30°06' W 093°19'1 2.9
2018-May-28 03:30N 30°05' W 093°18'1 1.8
2018-May-28 03:00N 30°05' W 093°17'1 1.4
2018-May-28 02:30N 30°04' W 093°16'1 1.0
2018-May-28 02:00N 30°04' W 093°16'1 1.9
2018-May-28 01:30N 30°03' W 093°16'1 2.1
2018-May-28 01:01N 30°02' W 093°15'0 0.9
2018-May-28 00:30N 30°02' W 093°15'0 0.4
2018-May-28 00:00N 30°02' W 093°14'0 0.0
2018-May-27 23:31N 30°02' W 093°14'0 0.0
2018-May-27 23:00N 30°02' W 093°14'0 0.0
2018-May-27 22:30N 30°02' W 093°14'0 0.0
2018-May-27 22:00N 30°02' W 093°14'2 3.6
2018-May-27 21:30N 29°60' W 093°13'1 2.8
2018-May-27 21:00N 29°59' W 093°12'2 3.1
2018-May-27 20:30N 29°58' W 093°11'2 4.6
2018-May-27 20:01N 29°56' W 093°09'3 5.1
2018-May-27 19:29N 29°56' W 093°06'0 0.9
2018-May-27 19:00N 29°56' W 093°06'31 4.6
2018-May-27 12:10N 29°54' W 092°30'1 5.0
2018-May-27 12:00N 29°54' W 092°29'2 4.9
2018-May-27 11:30N 29°53' W 092°26'3 4.7
2018-May-27 10:58N 29°53' W 092°23'2 3.9
2018-May-27 10:23N 29°51' W 092°22'2 4.7
2018-May-27 10:00N 29°51' W 092°20'2 4.2
2018-May-27 09:29N 29°50' W 092°18'1 2.5
2018-May-27 09:00N 29°49' W 092°17'2 3.4
2018-May-27 08:30N 29°48' W 092°15'2 4.1
2018-May-27 08:00N 29°47' W 092°13'1 1.4
2018-May-27 07:30N 29°47' W 092°12'1 1.1
2018-May-27 06:59N 29°47' W 092°11'0 0.0
2018-May-27 06:30N 29°47' W 092°11'0 0.6
2018-May-27 06:00N 29°47' W 092°11'0 0.0
2018-May-27 05:30N 29°47' W 092°11'0 0.6
2018-May-27 05:00N 29°47' W 092°11'2 4.6
2018-May-27 04:31N 29°47' W 092°08'3 5.0
2018-May-27 04:00N 29°48' W 092°05'2 4.9
2018-May-27 03:30N 29°49' W 092°03'2 4.8
2018-May-27 02:59N 29°50' W 092°00'2 4.8
2018-May-27 02:30N 29°50' W 091°58'2 4.7
2018-May-27 02:00N 29°51' W 091°55'  

Dump ship's entire track history